sensor_id;sensor_type;location;lat;lon;timestamp;P1;durP1;ratioP1;P2;durP2;ratioP2
20857;SDS011;10589;53.636;10.012;2023-02-04T04:47:36;8.03;;;4.60;;
20857;SDS011;10589;53.636;10.012;2023-02-04T04:50:02;7.17;;;3.97;;
20857;SDS011;10589;53.636;10.012;2023-02-04T04:52:28;13.10;;;4.43;;
20857;SDS011;10589;53.636;10.012;2023-02-04T04:54:53;8.80;;;3.80;;
20857;SDS011;10589;53.636;10.012;2023-02-04T04:57:19;5.73;;;3.70;;
20857;SDS011;10589;53.636;10.012;2023-02-04T04:59:45;7.83;;;3.90;;
20857;SDS011;10589;53.636;10.012;2023-02-04T05:02:10;9.83;;;4.23;;
20857;SDS011;10589;53.636;10.012;2023-02-04T05:04:36;6.63;;;3.80;;
20857;SDS011;10589;53.636;10.012;2023-02-04T05:07:01;5.20;;;3.43;;
20857;SDS011;10589;53.636;10.012;2023-02-04T05:09:27;6.63;;;3.53;;
20857;SDS011;10589;53.636;10.012;2023-02-04T05:11:53;4.27;;;3.57;;
20857;SDS011;10589;53.636;10.012;2023-02-04T05:14:18;5.47;;;3.50;;
20857;SDS011;10589;53.636;10.012;2023-02-04T05:16:44;8.10;;;3.80;;
20857;SDS011;10589;53.636;10.012;2023-02-04T05:19:09;7.30;;;3.40;;
20857;SDS011;10589;53.636;10.012;2023-02-04T05:21:35;8.70;;;3.30;;
20857;SDS011;10589;53.636;10.012;2023-02-04T05:24:01;7.00;;;3.77;;
20857;SDS011;10589;53.636;10.012;2023-02-04T05:26:26;8.87;;;3.90;;
20857;SDS011;10589;53.636;10.012;2023-02-04T05:28:52;4.57;;;3.10;;
20857;SDS011;10589;53.636;10.012;2023-02-04T05:31:17;8.00;;;3.47;;
20857;SDS011;10589;53.636;10.012;2023-02-04T05:33:43;6.53;;;3.40;;
20857;SDS011;10589;53.636;10.012;2023-02-04T05:36:08;4.87;;;3.20;;
20857;SDS011;10589;53.636;10.012;2023-02-04T05:38:34;5.77;;;3.23;;
20857;SDS011;10589;53.636;10.012;2023-02-04T05:40:59;5.23;;;3.10;;
20857;SDS011;10589;53.636;10.012;2023-02-04T05:43:25;6.27;;;3.30;;
20857;SDS011;10589;53.636;10.012;2023-02-04T05:45:51;4.07;;;3.10;;
20857;SDS011;10589;53.636;10.012;2023-02-04T05:48:16;5.10;;;2.87;;
20857;SDS011;10589;53.636;10.012;2023-02-04T05:50:42;6.67;;;2.90;;
20857;SDS011;10589;53.636;10.012;2023-02-04T05:53:07;4.80;;;2.90;;
20857;SDS011;10589;53.636;10.012;2023-02-04T05:55:33;5.47;;;3.13;;
20857;SDS011;10589;53.636;10.012;2023-02-04T05:57:59;4.20;;;2.70;;
20857;SDS011;10589;53.636;10.012;2023-02-04T06:00:24;6.03;;;2.90;;
20857;SDS011;10589;53.636;10.012;2023-02-04T06:02:50;4.63;;;3.13;;
20857;SDS011;10589;53.636;10.012;2023-02-04T06:05:16;4.53;;;3.50;;
20857;SDS011;10589;53.636;10.012;2023-02-04T06:07:42;4.50;;;2.97;;
20857;SDS011;10589;53.636;10.012;2023-02-04T06:10:08;3.47;;;2.97;;
20857;SDS011;10589;53.636;10.012;2023-02-04T06:12:35;5.13;;;3.17;;
20857;SDS011;10589;53.636;10.012;2023-02-04T06:15:00;4.83;;;3.10;;
20857;SDS011;10589;53.636;10.012;2023-02-04T06:17:26;3.63;;;2.70;;
20857;SDS011;10589;53.636;10.012;2023-02-04T06:19:52;4.77;;;2.80;;
20857;SDS011;10589;53.636;10.012;2023-02-04T06:22:17;6.83;;;2.93;;
20857;SDS011;10589;53.636;10.012;2023-02-04T06:24:43;3.60;;;3.00;;
20857;SDS011;10589;53.636;10.012;2023-02-04T06:27:08;7.53;;;3.07;;
20857;SDS011;10589;53.636;10.012;2023-02-04T06:29:34;6.10;;;2.90;;
20857;SDS011;10589;53.636;10.012;2023-02-04T06:31:59;7.33;;;3.10;;
20857;SDS011;10589;53.636;10.012;2023-02-04T06:34:25;10.50;;;3.67;;
20857;SDS011;10589;53.636;10.012;2023-02-04T06:36:50;6.43;;;3.10;;
20857;SDS011;10589;53.636;10.012;2023-02-04T06:39:16;4.93;;;3.40;;
20857;SDS011;10589;53.636;10.012;2023-02-04T06:41:42;8.10;;;3.70;;
20857;SDS011;10589;53.636;10.012;2023-02-04T06:44:07;4.33;;;3.30;;
20857;SDS011;10589;53.636;10.012;2023-02-04T06:46:33;4.20;;;3.03;;
20857;SDS011;10589;53.636;10.012;2023-02-04T06:48:58;5.23;;;3.67;;
20857;SDS011;10589;53.636;10.012;2023-02-04T06:51:24;7.30;;;4.50;;
20857;SDS011;10589;53.636;10.012;2023-02-04T06:53:50;7.97;;;4.17;;
20857;SDS011;10589;53.636;10.012;2023-02-04T06:56:16;7.40;;;4.10;;
20857;SDS011;10589;53.636;10.012;2023-02-04T06:58:42;5.53;;;3.63;;
20857;SDS011;10589;53.636;10.012;2023-02-04T07:01:07;8.13;;;4.23;;
20857;SDS011;10589;53.636;10.012;2023-02-04T07:03:33;7.50;;;3.60;;
20857;SDS011;10589;53.636;10.012;2023-02-04T07:05:58;6.90;;;4.10;;
20857;SDS011;10589;53.636;10.012;2023-02-04T07:08:24;5.67;;;3.77;;
20857;SDS011;10589;53.636;10.012;2023-02-04T07:10:50;7.10;;;3.40;;
20857;SDS011;10589;53.636;10.012;2023-02-04T07:13:15;5.63;;;3.87;;
20857;SDS011;10589;53.636;10.012;2023-02-04T07:15:41;5.33;;;3.90;;
20857;SDS011;10589;53.636;10.012;2023-02-04T07:18:07;6.90;;;3.60;;
20857;SDS011;10589;53.636;10.012;2023-02-04T07:20:33;5.53;;;3.80;;
20857;SDS011;10589;53.636;10.012;2023-02-04T07:22:58;7.77;;;4.53;;
20857;SDS011;10589;53.636;10.012;2023-02-04T07:25:24;7.90;;;4.20;;
20857;SDS011;10589;53.636;10.012;2023-02-04T07:27:49;9.23;;;4.53;;
20857;SDS011;10589;53.636;10.012;2023-02-04T07:30:15;9.23;;;4.50;;
20857;SDS011;10589;53.636;10.012;2023-02-04T07:32:41;6.50;;;4.17;;
20857;SDS011;10589;53.636;10.012;2023-02-04T07:35:07;7.73;;;4.40;;
20857;SDS011;10589;53.636;10.012;2023-02-04T07:37:33;6.53;;;4.30;;
20857;SDS011;10589;53.636;10.012;2023-02-04T07:39:59;7.70;;;4.43;;
20857;SDS011;10589;53.636;10.012;2023-02-04T07:42:24;6.90;;;4.90;;
20857;SDS011;10589;53.636;10.012;2023-02-04T07:44:50;7.27;;;4.50;;
20857;SDS011;10589;53.636;10.012;2023-02-04T07:47:16;8.50;;;4.73;;
20857;SDS011;10589;53.636;10.012;2023-02-04T07:49:41;8.30;;;4.53;;
20857;SDS011;10589;53.636;10.012;2023-02-04T07:52:07;8.47;;;5.10;;
20857;SDS011;10589;53.636;10.012;2023-02-04T07:54:33;11.67;;;5.90;;
20857;SDS011;10589;53.636;10.012;2023-02-04T07:56:59;7.93;;;4.97;;
20857;SDS011;10589;53.636;10.012;2023-02-04T07:59:24;8.53;;;4.80;;
20857;SDS011;10589;53.636;10.012;2023-02-04T08:01:50;11.17;;;5.10;;
20857;SDS011;10589;53.636;10.012;2023-02-04T08:04:15;8.37;;;5.23;;
20857;SDS011;10589;53.636;10.012;2023-02-04T08:06:41;10.77;;;5.10;;
20857;SDS011;10589;53.636;10.012;2023-02-04T08:09:06;11.50;;;5.13;;
20857;SDS011;10589;53.636;10.012;2023-02-04T08:11:32;10.70;;;5.30;;
20857;SDS011;10589;53.636;10.012;2023-02-04T08:13:58;9.97;;;5.50;;
20857;SDS011;10589;53.636;10.012;2023-02-04T08:16:23;10.47;;;5.17;;
20857;SDS011;10589;53.636;10.012;2023-02-04T08:18:49;11.23;;;5.33;;
20857;SDS011;10589;53.636;10.012;2023-02-04T08:21:14;14.60;;;5.57;;
20857;SDS011;10589;53.636;10.012;2023-02-04T08:23:40;13.03;;;5.83;;
20857;SDS011;10589;53.636;10.012;2023-02-04T08:26:09;11.63;;;6.03;;
20857;SDS011;10589;53.636;10.012;2023-02-04T08:28:36;13.60;;;6.27;;
20857;SDS011;10589;53.636;10.012;2023-02-04T08:31:02;14.47;;;6.10;;
20857;SDS011;10589;53.636;10.012;2023-02-04T08:33:29;11.07;;;6.63;;
20857;SDS011;10589;53.636;10.012;2023-02-04T08:35:54;12.53;;;6.57;;
20857;SDS011;10589;53.636;10.012;2023-02-04T08:38:20;14.87;;;6.50;;
20857;SDS011;10589;53.636;10.012;2023-02-04T08:40:45;9.90;;;6.80;;
20857;SDS011;10589;53.636;10.012;2023-02-04T08:43:11;10.07;;;6.17;;
20857;SDS011;10589;53.636;10.012;2023-02-04T08:45:37;11.67;;;5.90;;
20857;SDS011;10589;53.636;10.012;2023-02-04T08:48:02;14.83;;;6.10;;
20857;SDS011;10589;53.636;10.012;2023-02-04T08:50:28;12.83;;;5.83;;
20857;SDS011;10589;53.636;10.012;2023-02-04T08:52:55;9.23;;;6.00;;
20857;SDS011;10589;53.636;10.012;2023-02-04T08:55:20;9.07;;;6.37;;
20857;SDS011;10589;53.636;10.012;2023-02-04T08:57:46;11.20;;;6.33;;
20857;SDS011;10589;53.636;10.012;2023-02-04T09:00:12;8.33;;;5.57;;
20857;SDS011;10589;53.636;10.012;2023-02-04T09:02:38;8.53;;;5.33;;
20857;SDS011;10589;53.636;10.012;2023-02-04T09:05:03;9.70;;;5.53;;
20857;SDS011;10589;53.636;10.012;2023-02-04T09:07:29;10.10;;;5.20;;
20857;SDS011;10589;53.636;10.012;2023-02-04T09:09:55;6.77;;;4.60;;
20857;SDS011;10589;53.636;10.012;2023-02-04T09:12:20;8.90;;;4.10;;
20857;SDS011;10589;53.636;10.012;2023-02-04T09:14:46;9.57;;;4.50;;
20857;SDS011;10589;53.636;10.012;2023-02-04T09:17:12;5.43;;;3.73;;
20857;SDS011;10589;53.636;10.012;2023-02-04T09:19:37;7.80;;;3.87;;
20857;SDS011;10589;53.636;10.012;2023-02-04T09:22:03;5.07;;;3.80;;
20857;SDS011;10589;53.636;10.012;2023-02-04T09:24:28;6.10;;;3.60;;
20857;SDS011;10589;53.636;10.012;2023-02-04T09:26:54;7.70;;;3.00;;
20857;SDS011;10589;53.636;10.012;2023-02-04T09:29:20;4.87;;;3.57;;
20857;SDS011;10589;53.636;10.012;2023-02-04T09:31:45;3.73;;;3.23;;
20857;SDS011;10589;53.636;10.012;2023-02-04T09:34:11;4.60;;;3.30;;
20857;SDS011;10589;53.636;10.012;2023-02-04T09:36:36;7.07;;;3.00;;
20857;SDS011;10589;53.636;10.012;2023-02-04T09:39:05;5.73;;;3.17;;
20857;SDS011;10589;53.636;10.012;2023-02-04T09:41:33;5.63;;;3.07;;
20857;SDS011;10589;53.636;10.012;2023-02-04T09:44:00;5.83;;;3.47;;
20857;SDS011;10589;53.636;10.012;2023-02-04T09:46:27;6.33;;;3.70;;
20857;SDS011;10589;53.636;10.012;2023-02-04T09:48:54;8.33;;;3.10;;
20857;SDS011;10589;53.636;10.012;2023-02-04T09:51:21;7.50;;;2.80;;
20857;SDS011;10589;53.636;10.012;2023-02-04T09:53:50;4.00;;;2.40;;
20857;SDS011;10589;53.636;10.012;2023-02-04T09:56:18;3.73;;;2.30;;
20857;SDS011;10589;53.636;10.012;2023-02-04T09:58:44;6.53;;;2.50;;
20857;SDS011;10589;53.636;10.012;2023-02-04T10:01:11;3.70;;;2.40;;
20857;SDS011;10589;53.636;10.012;2023-02-04T10:03:40;6.33;;;2.70;;
20857;SDS011;10589;53.636;10.012;2023-02-04T10:06:13;4.60;;;2.60;;
20857;SDS011;10589;53.636;10.012;2023-02-04T10:08:39;5.93;;;2.57;;
20857;SDS011;10589;53.636;10.012;2023-02-04T10:11:05;3.70;;;2.67;;
20857;SDS011;10589;53.636;10.012;2023-02-04T10:13:34;4.40;;;2.37;;
20857;SDS011;10589;53.636;10.012;2023-02-04T10:16:03;4.17;;;1.63;;
20857;SDS011;10589;53.636;10.012;2023-02-04T10:18:37;3.37;;;1.60;;
20857;SDS011;10589;53.636;10.012;2023-02-04T10:21:18;4.93;;;1.60;;
20857;SDS011;10589;53.636;10.012;2023-02-04T10:23:58;2.77;;;1.83;;
20857;SDS011;10589;53.636;10.012;2023-02-04T10:26:27;5.97;;;2.23;;
20857;SDS011;10589;53.636;10.012;2023-02-04T10:28:58;2.80;;;1.90;;
20857;SDS011;10589;53.636;10.012;2023-02-04T10:31:30;4.60;;;1.87;;
20857;SDS011;10589;53.636;10.012;2023-02-04T10:39:20;2.23;;;1.47;;
20857;SDS011;10589;53.636;10.012;2023-02-04T10:41:48;3.40;;;1.60;;
20857;SDS011;10589;53.636;10.012;2023-02-04T10:44:19;1.77;;;1.17;;
20857;SDS011;10589;53.636;10.012;2023-02-04T10:47:03;3.50;;;1.50;;
20857;SDS011;10589;53.636;10.012;2023-02-04T10:49:31;2.23;;;1.30;;
20857;SDS011;10589;53.636;10.012;2023-02-04T10:51:57;2.80;;;1.20;;
20857;SDS011;10589;53.636;10.012;2023-02-04T10:54:26;1.30;;;1.00;;
20857;SDS011;10589;53.636;10.012;2023-02-04T10:59:30;2.70;;;1.20;;
20857;SDS011;10589;53.636;10.012;2023-02-04T11:01:57;2.17;;;0.80;;
20857;SDS011;10589;53.636;10.012;2023-02-04T11:04:26;1.53;;;0.97;;
20857;SDS011;10589;53.636;10.012;2023-02-04T11:06:52;2.20;;;1.20;;
20857;SDS011;10589;53.636;10.012;2023-02-04T11:09:19;2.03;;;1.00;;
20857;SDS011;10589;53.636;10.012;2023-02-04T11:11:46;3.90;;;0.97;;
20857;SDS011;10589;53.636;10.012;2023-02-04T11:14:31;1.10;;;0.80;;
20857;SDS011;10589;53.636;10.012;2023-02-04T11:16:57;1.60;;;0.97;;
20857;SDS011;10589;53.636;10.012;2023-02-04T11:19:30;2.17;;;1.03;;
20857;SDS011;10589;53.636;10.012;2023-02-04T11:22:05;2.37;;;1.27;;
20857;SDS011;10589;53.636;10.012;2023-02-04T11:24:43;0.97;;;0.87;;
20857;SDS011;10589;53.636;10.012;2023-02-04T11:27:24;1.83;;;1.07;;
20857;SDS011;10589;53.636;10.012;2023-02-04T11:30:06;1.20;;;0.80;;
20857;SDS011;10589;53.636;10.012;2023-02-04T11:32:43;1.80;;;1.00;;
20857;SDS011;10589;53.636;10.012;2023-02-04T11:35:25;2.33;;;1.10;;
20857;SDS011;10589;53.636;10.012;2023-02-04T11:37:52;2.57;;;1.13;;
20857;SDS011;10589;53.636;10.012;2023-02-04T11:40:26;1.60;;;1.07;;
20857;SDS011;10589;53.636;10.012;2023-02-04T11:42:57;1.40;;;0.90;;
20857;SDS011;10589;53.636;10.012;2023-02-04T11:45:34;1.27;;;0.90;;
20857;SDS011;10589;53.636;10.012;2023-02-04T11:48:01;2.50;;;1.30;;
20857;SDS011;10589;53.636;10.012;2023-02-04T11:50:39;2.67;;;1.23;;
20857;SDS011;10589;53.636;10.012;2023-02-04T11:53:07;2.30;;;0.80;;
20857;SDS011;10589;53.636;10.012;2023-02-04T11:55:35;4.33;;;1.20;;
20857;SDS011;10589;53.636;10.012;2023-02-04T11:58:11;7.27;;;1.83;;
20857;SDS011;10589;53.636;10.012;2023-02-04T12:00:39;3.03;;;0.83;;
20857;SDS011;10589;53.636;10.012;2023-02-04T12:03:17;2.67;;;0.90;;
20857;SDS011;10589;53.636;10.012;2023-02-04T12:05:45;2.80;;;1.00;;
20857;SDS011;10589;53.636;10.012;2023-02-04T12:11:01;2.30;;;0.90;;
20857;SDS011;10589;53.636;10.012;2023-02-04T12:13:32;2.23;;;1.30;;
20857;SDS011;10589;53.636;10.012;2023-02-04T12:15:59;1.83;;;0.97;;
20857;SDS011;10589;53.636;10.012;2023-02-04T12:18:29;1.43;;;1.00;;
20857;SDS011;10589;53.636;10.012;2023-02-04T12:20:56;3.47;;;1.50;;
20857;SDS011;10589;53.636;10.012;2023-02-04T12:23:23;2.27;;;1.00;;
20857;SDS011;10589;53.636;10.012;2023-02-04T12:25:50;4.47;;;1.03;;
20857;SDS011;10589;53.636;10.012;2023-02-04T12:28:16;2.00;;;1.20;;
20857;SDS011;10589;53.636;10.012;2023-02-04T12:30:41;2.10;;;1.20;;
20857;SDS011;10589;53.636;10.012;2023-02-04T12:33:07;3.57;;;1.13;;
20857;SDS011;10589;53.636;10.012;2023-02-04T12:35:33;3.50;;;1.67;;
20857;SDS011;10589;53.636;10.012;2023-02-04T12:37:59;2.83;;;1.30;;
20857;SDS011;10589;53.636;10.012;2023-02-04T12:40:25;2.00;;;1.20;;
20857;SDS011;10589;53.636;10.012;2023-02-04T12:42:51;5.60;;;1.40;;
20857;SDS011;10589;53.636;10.012;2023-02-04T12:45:17;2.97;;;1.40;;
20857;SDS011;10589;53.636;10.012;2023-02-04T12:47:43;3.40;;;1.30;;
20857;SDS011;10589;53.636;10.012;2023-02-04T12:50:10;2.67;;;1.40;;
20857;SDS011;10589;53.636;10.012;2023-02-04T12:52:37;2.27;;;1.20;;
20857;SDS011;10589;53.636;10.012;2023-02-04T12:55:03;2.37;;;1.40;;
20857;SDS011;10589;53.636;10.012;2023-02-04T12:57:31;2.40;;;1.10;;
20857;SDS011;10589;53.636;10.012;2023-02-04T12:59:57;2.13;;;1.10;;
20857;SDS011;10589;53.636;10.012;2023-02-04T13:02:25;2.30;;;1.20;;
20857;SDS011;10589;53.636;10.012;2023-02-04T13:04:54;1.57;;;1.20;;
20857;SDS011;10589;53.636;10.012;2023-02-04T13:07:21;1.93;;;1.17;;
20857;SDS011;10589;53.636;10.012;2023-02-04T13:09:47;2.03;;;1.03;;
20857;SDS011;10589;53.636;10.012;2023-02-04T13:12:13;2.80;;;0.93;;
20857;SDS011;10589;53.636;10.012;2023-02-04T13:14:39;2.87;;;1.07;;
20857;SDS011;10589;53.636;10.012;2023-02-04T13:17:06;1.60;;;1.00;;
20857;SDS011;10589;53.636;10.012;2023-02-04T13:19:31;3.90;;;1.00;;
20857;SDS011;10589;53.636;10.012;2023-02-04T13:21:58;2.77;;;1.30;;
20857;SDS011;10589;53.636;10.012;2023-02-04T13:24:24;2.67;;;1.27;;
20857;SDS011;10589;53.636;10.012;2023-02-04T13:26:50;4.40;;;1.57;;
20857;SDS011;10589;53.636;10.012;2023-02-04T13:29:16;2.83;;;1.53;;
20857;SDS011;10589;53.636;10.012;2023-02-04T13:31:41;1.70;;;1.10;;
20857;SDS011;10589;53.636;10.012;2023-02-04T13:34:07;1.50;;;0.80;;
20857;SDS011;10589;53.636;10.012;2023-02-04T13:36:33;1.90;;;1.00;;
20857;SDS011;10589;53.636;10.012;2023-02-04T13:38:58;6.17;;;1.00;;
20857;SDS011;10589;53.636;10.012;2023-02-04T13:41:25;3.10;;;1.10;;
20857;SDS011;10589;53.636;10.012;2023-02-04T13:43:51;3.07;;;1.20;;
20857;SDS011;10589;53.636;10.012;2023-02-04T13:46:16;1.53;;;0.93;;
20857;SDS011;10589;53.636;10.012;2023-02-04T13:48:42;1.90;;;0.90;;
20857;SDS011;10589;53.636;10.012;2023-02-04T13:51:08;6.73;;;1.13;;
20857;SDS011;10589;53.636;10.012;2023-02-04T13:53:34;4.33;;;1.27;;
20857;SDS011;10589;53.636;10.012;2023-02-04T13:56:00;2.80;;;1.30;;
20857;SDS011;10589;53.636;10.012;2023-02-04T13:58:25;1.70;;;0.97;;
20857;SDS011;10589;53.636;10.012;2023-02-04T14:00:51;2.03;;;0.93;;
20857;SDS011;10589;53.636;10.012;2023-02-04T14:03:21;1.40;;;0.93;;
20857;SDS011;10589;53.636;10.012;2023-02-04T14:05:51;2.10;;;0.83;;
20857;SDS011;10589;53.636;10.012;2023-02-04T14:08:18;3.03;;;1.20;;
20857;SDS011;10589;53.636;10.012;2023-02-04T14:10:44;1.63;;;0.83;;
20857;SDS011;10589;53.636;10.012;2023-02-04T14:13:10;2.07;;;1.10;;
20857;SDS011;10589;53.636;10.012;2023-02-04T14:15:36;2.27;;;1.10;;
20857;SDS011;10589;53.636;10.012;2023-02-04T14:18:02;1.90;;;1.57;;
20857;SDS011;10589;53.636;10.012;2023-02-04T14:20:29;3.90;;;1.20;;
20857;SDS011;10589;53.636;10.012;2023-02-04T14:22:55;3.83;;;1.03;;
20857;SDS011;10589;53.636;10.012;2023-02-04T14:25:20;3.37;;;1.07;;
20857;SDS011;10589;53.636;10.012;2023-02-04T14:27:46;1.40;;;0.83;;
20857;SDS011;10589;53.636;10.012;2023-02-04T14:30:16;2.30;;;1.20;;
20857;SDS011;10589;53.636;10.012;2023-02-04T14:32:44;2.87;;;1.10;;
20857;SDS011;10589;53.636;10.012;2023-02-04T14:35:10;1.90;;;0.90;;
20857;SDS011;10589;53.636;10.012;2023-02-04T14:37:37;1.57;;;1.17;;
20857;SDS011;10589;53.636;10.012;2023-02-04T14:40:03;1.40;;;1.00;;
20857;SDS011;10589;53.636;10.012;2023-02-04T14:42:29;4.27;;;1.97;;
20857;SDS011;10589;53.636;10.012;2023-02-04T14:44:54;2.23;;;1.33;;
20857;SDS011;10589;53.636;10.012;2023-02-04T14:47:20;4.43;;;1.10;;
20857;SDS011;10589;53.636;10.012;2023-02-04T14:49:45;2.30;;;1.10;;
20857;SDS011;10589;53.636;10.012;2023-02-04T14:52:11;1.20;;;0.90;;
20857;SDS011;10589;53.636;10.012;2023-02-04T14:54:38;1.77;;;1.20;;
20857;SDS011;10589;53.636;10.012;2023-02-04T14:57:03;3.20;;;1.20;;
20857;SDS011;10589;53.636;10.012;2023-02-04T14:59:30;4.33;;;1.40;;
20857;SDS011;10589;53.636;10.012;2023-02-04T15:01:56;2.23;;;1.30;;
20857;SDS011;10589;53.636;10.012;2023-02-04T15:04:21;2.90;;;1.33;;
20857;SDS011;10589;53.636;10.012;2023-02-04T15:06:47;2.07;;;1.53;;
20857;SDS011;10589;53.636;10.012;2023-02-04T15:09:15;2.47;;;1.40;;
20857;SDS011;10589;53.636;10.012;2023-02-04T15:11:40;6.63;;;1.70;;
20857;SDS011;10589;53.636;10.012;2023-02-04T15:14:06;2.60;;;1.70;;
20857;SDS011;10589;53.636;10.012;2023-02-04T15:16:32;2.53;;;1.43;;
20857;SDS011;10589;53.636;10.012;2023-02-04T15:18:57;3.63;;;1.70;;
20857;SDS011;10589;53.636;10.012;2023-02-04T15:21:23;2.17;;;1.03;;
20857;SDS011;10589;53.636;10.012;2023-02-04T15:23:48;2.03;;;1.17;;
20857;SDS011;10589;53.636;10.012;2023-02-04T15:26:14;2.90;;;1.00;;
20857;SDS011;10589;53.636;10.012;2023-02-04T15:28:39;1.57;;;1.10;;
20857;SDS011;10589;53.636;10.012;2023-02-04T15:31:05;2.67;;;1.33;;
20857;SDS011;10589;53.636;10.012;2023-02-04T15:33:31;2.03;;;1.33;;
20857;SDS011;10589;53.636;10.012;2023-02-04T15:35:56;3.70;;;2.83;;
20857;SDS011;10589;53.636;10.012;2023-02-04T15:38:22;3.80;;;2.80;;
20857;SDS011;10589;53.636;10.012;2023-02-04T15:40:48;3.70;;;2.57;;
20857;SDS011;10589;53.636;10.012;2023-02-04T15:43:13;6.67;;;4.30;;
20857;SDS011;10589;53.636;10.012;2023-02-04T15:45:39;13.37;;;8.40;;
20857;SDS011;10589;53.636;10.012;2023-02-04T15:48:07;12.63;;;7.73;;
20857;SDS011;10589;53.636;10.012;2023-02-04T15:50:33;14.47;;;10.07;;
20857;SDS011;10589;53.636;10.012;2023-02-04T15:52:59;9.90;;;7.63;;
20857;SDS011;10589;53.636;10.012;2023-02-04T15:55:25;23.97;;;15.47;;
20857;SDS011;10589;53.636;10.012;2023-02-04T15:57:50;37.60;;;22.17;;
20857;SDS011;10589;53.636;10.012;2023-02-04T16:00:16;35.80;;;19.60;;
20857;SDS011;10589;53.636;10.012;2023-02-04T16:02:42;28.17;;;15.33;;
20857;SDS011;10589;53.636;10.012;2023-02-04T16:05:08;31.53;;;19.23;;
20857;SDS011;10589;53.636;10.012;2023-02-04T16:07:34;25.70;;;15.60;;
20857;SDS011;10589;53.636;10.012;2023-02-04T16:09:59;14.40;;;8.17;;
20857;SDS011;10589;53.636;10.012;2023-02-04T16:12:25;10.90;;;6.47;;
20857;SDS011;10589;53.636;10.012;2023-02-04T16:14:50;11.33;;;7.87;;
20857;SDS011;10589;53.636;10.012;2023-02-04T16:17:16;8.83;;;6.40;;
20857;SDS011;10589;53.636;10.012;2023-02-04T16:19:41;7.80;;;4.53;;
20857;SDS011;10589;53.636;10.012;2023-02-04T16:22:07;5.67;;;4.00;;
20857;SDS011;10589;53.636;10.012;2023-02-04T16:24:33;6.97;;;2.70;;
20857;SDS011;10589;53.636;10.012;2023-02-04T16:26:58;4.17;;;2.43;;
20857;SDS011;10589;53.636;10.012;2023-02-04T16:29:24;10.07;;;5.83;;
20857;SDS011;10589;53.636;10.012;2023-02-04T16:31:50;8.70;;;5.07;;
20857;SDS011;10589;53.636;10.012;2023-02-04T16:34:17;5.00;;;2.97;;
20857;SDS011;10589;53.636;10.012;2023-02-04T16:36:43;6.57;;;2.73;;
20857;SDS011;10589;53.636;10.012;2023-02-04T16:39:09;5.77;;;3.10;;
20857;SDS011;10589;53.636;10.012;2023-02-04T16:41:34;18.67;;;13.77;;
20857;SDS011;10589;53.636;10.012;2023-02-04T16:44:00;11.17;;;8.87;;
20857;SDS011;10589;53.636;10.012;2023-02-04T16:46:26;10.33;;;7.07;;
20857;SDS011;10589;53.636;10.012;2023-02-04T16:48:54;9.33;;;4.73;;
20857;SDS011;10589;53.636;10.012;2023-02-04T16:51:20;6.17;;;4.17;;
20857;SDS011;10589;53.636;10.012;2023-02-04T16:53:45;5.90;;;3.83;;
20857;SDS011;10589;53.636;10.012;2023-02-04T16:56:11;5.97;;;3.40;;
20857;SDS011;10589;53.636;10.012;2023-02-04T16:58:37;4.63;;;3.50;;
20857;SDS011;10589;53.636;10.012;2023-02-04T17:01:03;5.80;;;3.40;;
20857;SDS011;10589;53.636;10.012;2023-02-04T17:03:30;3.73;;;2.93;;
20857;SDS011;10589;53.636;10.012;2023-02-04T17:05:55;5.90;;;3.70;;
20857;SDS011;10589;53.636;10.012;2023-02-04T17:08:21;6.03;;;3.43;;
20857;SDS011;10589;53.636;10.012;2023-02-04T17:10:47;6.77;;;4.17;;
20857;SDS011;10589;53.636;10.012;2023-02-04T17:13:31;5.67;;;3.40;;
20857;SDS011;10589;53.636;10.012;2023-02-04T17:15:58;5.80;;;3.93;;
20857;SDS011;10589;53.636;10.012;2023-02-04T17:18:30;6.33;;;3.57;;
20857;SDS011;10589;53.636;10.012;2023-02-04T17:20:56;6.10;;;4.13;;
20857;SDS011;10589;53.636;10.012;2023-02-04T17:23:23;6.77;;;3.90;;
20857;SDS011;10589;53.636;10.012;2023-02-04T17:25:50;7.40;;;4.37;;
20857;SDS011;10589;53.636;10.012;2023-02-04T17:28:15;6.33;;;3.80;;
20857;SDS011;10589;53.636;10.012;2023-02-04T17:30:41;9.10;;;4.23;;
20857;SDS011;10589;53.636;10.012;2023-02-04T17:33:07;6.80;;;4.40;;
20857;SDS011;10589;53.636;10.012;2023-02-04T17:35:32;7.20;;;5.30;;
20857;SDS011;10589;53.636;10.012;2023-02-04T17:37:58;6.67;;;5.13;;
20857;SDS011;10589;53.636;10.012;2023-02-04T17:40:25;7.37;;;4.60;;
20857;SDS011;10589;53.636;10.012;2023-02-04T17:42:51;7.17;;;4.57;;
20857;SDS011;10589;53.636;10.012;2023-02-04T17:45:17;8.37;;;4.37;;
20857;SDS011;10589;53.636;10.012;2023-02-04T17:47:43;8.17;;;4.40;;
20857;SDS011;10589;53.636;10.012;2023-02-04T17:50:09;8.93;;;4.97;;
20857;SDS011;10589;53.636;10.012;2023-02-04T17:52:35;7.47;;;5.07;;
20857;SDS011;10589;53.636;10.012;2023-02-04T17:55:05;6.90;;;4.70;;
20857;SDS011;10589;53.636;10.012;2023-02-04T17:57:42;7.40;;;4.20;;
20857;SDS011;10589;53.636;10.012;2023-02-04T18:00:17;7.33;;;5.33;;
20857;SDS011;10589;53.636;10.012;2023-02-04T18:02:46;9.07;;;4.97;;
20857;SDS011;10589;53.636;10.012;2023-02-04T18:05:17;6.13;;;4.07;;
20857;SDS011;10589;53.636;10.012;2023-02-04T18:10:37;5.70;;;4.00;;
20857;SDS011;10589;53.636;10.012;2023-02-04T18:15:57;6.60;;;3.73;;
20857;SDS011;10589;53.636;10.012;2023-02-04T18:18:31;4.90;;;3.17;;
20857;SDS011;10589;53.636;10.012;2023-02-04T18:20:58;4.80;;;3.13;;
20857;SDS011;10589;53.636;10.012;2023-02-04T18:23:27;6.77;;;3.37;;
20857;SDS011;10589;53.636;10.012;2023-02-04T18:25:56;4.93;;;3.00;;
20857;SDS011;10589;53.636;10.012;2023-02-04T18:28:30;4.93;;;2.67;;
20857;SDS011;10589;53.636;10.012;2023-02-04T18:30:58;3.57;;;2.53;;
20857;SDS011;10589;53.636;10.012;2023-02-04T18:33:25;5.27;;;2.70;;
20857;SDS011;10589;53.636;10.012;2023-02-04T18:35:54;5.40;;;3.27;;
20857;SDS011;10589;53.636;10.012;2023-02-04T18:38:26;5.30;;;3.00;;
20857;SDS011;10589;53.636;10.012;2023-02-04T18:41:38;5.10;;;2.90;;
20857;SDS011;10589;53.636;10.012;2023-02-04T18:43:44;7.33;;;2.87;;
20857;SDS011;10589;53.636;10.012;2023-02-04T18:49:01;6.20;;;3.13;;
20857;SDS011;10589;53.636;10.012;2023-02-04T18:51:31;6.13;;;3.13;;
20857;SDS011;10589;53.636;10.012;2023-02-04T18:56:53;5.00;;;3.67;;
20857;SDS011;10589;53.636;10.012;2023-02-04T18:59:26;7.87;;;3.83;;
20857;SDS011;10589;53.636;10.012;2023-02-04T19:01:52;4.83;;;3.00;;
20857;SDS011;10589;53.636;10.012;2023-02-04T19:04:22;4.07;;;2.50;;
20857;SDS011;10589;53.636;10.012;2023-02-04T19:06:50;5.10;;;2.50;;
20857;SDS011;10589;53.636;10.012;2023-02-04T19:09:26;4.30;;;3.00;;
20857;SDS011;10589;53.636;10.012;2023-02-04T19:11:57;5.57;;;2.70;;
20857;SDS011;10589;53.636;10.012;2023-02-04T19:17:12;6.17;;;3.27;;
20857;SDS011;10589;53.636;10.012;2023-02-04T19:20:25;4.37;;;3.00;;
20857;SDS011;10589;53.636;10.012;2023-02-04T19:22:46;5.20;;;2.93;;
20857;SDS011;10589;53.636;10.012;2023-02-04T19:25:23;5.77;;;2.93;;
20857;SDS011;10589;53.636;10.012;2023-02-04T19:28:04;6.57;;;3.23;;
20857;SDS011;10589;53.636;10.012;2023-02-04T19:30:57;4.80;;;2.60;;
20857;SDS011;10589;53.636;10.012;2023-02-04T19:33:27;3.50;;;2.30;;
20857;SDS011;10589;53.636;10.012;2023-02-04T19:38:43;4.80;;;2.10;;
20857;SDS011;10589;53.636;10.012;2023-02-04T19:46:39;4.70;;;3.00;;
20857;SDS011;10589;53.636;10.012;2023-02-04T19:49:15;5.37;;;3.20;;
20857;SDS011;10589;53.636;10.012;2023-02-04T19:51:53;7.47;;;2.90;;
20857;SDS011;10589;53.636;10.012;2023-02-04T19:54:20;6.03;;;3.47;;